Terminal Aerodrome Forecast
Issued by NWS

Home | Current Version | Previous Version | Text Only | Print | Product List | Glossary Off
Versions: 1 2 3 4 5 6 7 8 9 10 11 12 13 14 15 16 17 18

000
FTUS43 KGRB 261700
TAFATW
TAF
KATW 261721Z 2618/2718 32013G18KT P6SM BKN035
     FM270100 35011KT P6SM BKN035
     FM270300 35011KT P6SM SCT035
     FM271500 36011KT P6SM SCT035=

USA.gov is the U.S. government's official web portal to all federal, state and local government web resources and services.